BAW75X EGLL-DNMM
Flight info
| Callsign | BAW75X |
|---|---|
| Flight time | 5h 56m |
| Altitude | 35000 |
| Route | MODMI M185 MID L151 SITET UN859 SOPIL DCT BALAN DCT EVPOK DCT NARAK DCT GAI DCT LOMRA DCT ROCAN/N0487F370 DCT PUMAL DCT XEPLA DCT BCN DCT GARBI DCT LARPA DCT TOLSO DCT LISAS DCT MJV N859 MOGIL UB31 ZEM/N0482F360 UZ333 KAHIL UB726 GHA/N0483F370 UA615 TMS UA604 EREBO/N0486F380 DCT MIGNI UY333 KIGRA UB731 BUDSI BUDSI1N |
| Aircraft | B77W/H-SDE1E2E3FGHIJ2J3J4J5M1RWXY/LB1D1 |
Departure
| Time | 2026-05-05 13:38 |
|---|---|
| Airport | London Heathrow Airport (EGLL) |
Arrival
| Time | 2026-05-05 19:35 |
|---|---|
| Airport | Murtala Muhammed International Airport (DNMM) |
| Time | Latitude | Longitude | Altitude | Speed | Heading |
|---|---|---|---|---|---|
| 2026-05-05 12:57 | 51.47040 | -0.46353 | 95 ft | 0 kts | 235° |
| 2026-05-05 13:17 | 51.47048 | -0.46333 | 94 ft | 2 kts | 241° |
| 2026-05-05 13:17 | 51.47056 | -0.46309 | 94 ft | 2 kts | 247° |
| 2026-05-05 13:18 | 51.47061 | -0.46285 | 91 ft | 2 kts | 258° |
| 2026-05-05 13:18 | 51.47063 | -0.46258 | 92 ft | 2 kts | 278° |
| 2026-05-05 13:18 | 51.47058 | -0.46233 | 92 ft | 2 kts | 304° |
| 2026-05-05 13:18 | 51.47048 | -0.46214 | 93 ft | 2 kts | 322° |
| 2026-05-05 13:19 | 51.47043 | -0.46209 | 93 ft | 0 kts | 324° |
| 2026-05-05 13:19 | 51.47041 | -0.46207 | 93 ft | 1 kts | 324° |
| 2026-05-05 13:19 | 51.47037 | -0.46201 | 94 ft | 1 kts | 326° |
| 2026-05-05 13:19 | 51.47036 | -0.46201 | 94 ft | 0 kts | 325° |
| 2026-05-05 13:23 | 51.47046 | -0.46212 | 96 ft | 6 kts | 325° |
| 2026-05-05 13:23 | 51.47079 | -0.46248 | 95 ft | 6 kts | 326° |
| 2026-05-05 13:24 | 51.47119 | -0.46291 | 94 ft | 10 kts | 326° |
| 2026-05-05 13:24 | 51.47176 | -0.46355 | 94 ft | 10 kts | 326° |
| 2026-05-05 13:24 | 51.47230 | -0.46427 | 94 ft | 10 kts | 304° |
| 2026-05-05 13:24 | 51.47239 | -0.46537 | 91 ft | 10 kts | 269° |
| 2026-05-05 13:25 | 51.47238 | -0.46651 | 91 ft | 10 kts | 269° |
| 2026-05-05 13:25 | 51.47237 | -0.46765 | 91 ft | 10 kts | 269° |
| 2026-05-05 13:25 | 51.47211 | -0.46862 | 94 ft | 10 kts | 205° |
| 2026-05-05 13:25 | 51.47139 | -0.46865 | 91 ft | 10 kts | 179° |
| 2026-05-05 13:26 | 51.47067 | -0.46863 | 92 ft | 10 kts | 179° |
| 2026-05-05 13:26 | 51.46994 | -0.46863 | 91 ft | 12 kts | 180° |
| 2026-05-05 13:26 | 51.46905 | -0.46862 | 93 ft | 13 kts | 180° |
| 2026-05-05 13:26 | 51.46815 | -0.46862 | 93 ft | 13 kts | 180° |
| 2026-05-05 13:27 | 51.46724 | -0.46860 | 93 ft | 13 kts | 179° |
| 2026-05-05 13:27 | 51.46658 | -0.46934 | 94 ft | 13 kts | 259° |
| 2026-05-05 13:27 | 51.46657 | -0.47080 | 94 ft | 13 kts | 270° |
| 2026-05-05 13:27 | 51.46656 | -0.47226 | 94 ft | 13 kts | 269° |
| 2026-05-05 13:28 | 51.46655 | -0.47372 | 94 ft | 13 kts | 269° |
| 2026-05-05 13:28 | 51.46655 | -0.47518 | 94 ft | 13 kts | 270° |
| 2026-05-05 13:28 | 51.46655 | -0.47674 | 93 ft | 15 kts | 270° |
| 2026-05-05 13:28 | 51.46655 | -0.47837 | 94 ft | 15 kts | 270° |
| 2026-05-05 13:29 | 51.46654 | -0.48000 | 92 ft | 15 kts | 269° |
| 2026-05-05 13:29 | 51.46653 | -0.48163 | 92 ft | 15 kts | 270° |
| 2026-05-05 13:29 | 51.46653 | -0.48327 | 93 ft | 15 kts | 269° |
| 2026-05-05 13:29 | 51.46652 | -0.48487 | 91 ft | 14 kts | 269° |
| 2026-05-05 13:30 | 51.46652 | -0.48531 | 91 ft | 0 kts | 269° |
| 2026-05-05 13:31 | 51.46652 | -0.48547 | 91 ft | 7 kts | 269° |
| 2026-05-05 13:31 | 51.46651 | -0.48624 | 92 ft | 3 kts | 270° |
| 2026-05-05 13:32 | 51.46651 | -0.48644 | 93 ft | 2 kts | 270° |
| 2026-05-05 13:32 | 51.46651 | -0.48664 | 91 ft | 2 kts | 270° |
| 2026-05-05 13:32 | 51.46651 | -0.48671 | 93 ft | 0 kts | 270° |
| 2026-05-05 13:33 | 51.46651 | -0.48689 | 92 ft | 3 kts | 269° |
| 2026-05-05 13:33 | 51.46645 | -0.48724 | 94 ft | 3 kts | 243° |
| 2026-05-05 13:34 | 51.46627 | -0.48748 | 93 ft | 3 kts | 211° |
| 2026-05-05 13:34 | 51.46607 | -0.48761 | 95 ft | 0 kts | 200° |
| 2026-05-05 13:35 | 51.46606 | -0.48762 | 93 ft | 0 kts | 201° |
| 2026-05-05 13:35 | 51.46605 | -0.48763 | 93 ft | 0 kts | 201° |
| 2026-05-05 13:35 | 51.46599 | -0.48766 | 94 ft | 2 kts | 200° |
| 2026-05-05 13:36 | 51.46586 | -0.48773 | 93 ft | 2 kts | 198° |
| 2026-05-05 13:36 | 51.46561 | -0.48783 | 93 ft | 9 kts | 189° |
| 2026-05-05 13:36 | 51.46500 | -0.48757 | 94 ft | 10 kts | 143° |
| 2026-05-05 13:36 | 51.46479 | -0.48660 | 94 ft | 9 kts | 91° |
| 2026-05-05 13:37 | 51.46479 | -0.48648 | 94 ft | 0 kts | 90° |
| 2026-05-05 13:37 | 51.46479 | -0.48454 | 91 ft | 46 kts | 90° |
| 2026-05-05 13:37 | 51.46482 | -0.47433 | 93 ft | 136 kts | 89° |
| 2026-05-05 13:38 | 51.46497 | -0.45515 | 146 ft | 198 kts | 89° |
| 2026-05-05 13:38 | 51.46510 | -0.43360 | 1129 ft | 187 kts | 86° |
| 2026-05-05 13:38 | 51.46479 | -0.41248 | 2044 ft | 194 kts | 98° |
| 2026-05-05 13:38 | 51.45823 | -0.39193 | 2275 ft | 220 kts | 127° |
| 2026-05-05 13:39 | 51.44716 | -0.37305 | 2497 ft | 249 kts | 143° |
| 2026-05-05 13:39 | 51.43054 | -0.36266 | 3062 ft | 261 kts | 163° |
| 2026-05-05 13:39 | 51.41271 | -0.35543 | 3844 ft | 266 kts | 169° |
| 2026-05-05 13:39 | 51.39400 | -0.35628 | 4628 ft | 274 kts | 196° |
| 2026-05-05 13:40 | 51.37668 | -0.36889 | 5375 ft | 273 kts | 208° |
| 2026-05-05 13:40 | 51.36013 | -0.38385 | 6071 ft | 274 kts | 209° |
| 2026-05-05 13:40 | 51.34317 | -0.39847 | 6862 ft | 279 kts | 207° |
| 2026-05-05 13:40 | 51.32574 | -0.41272 | 7691 ft | 283 kts | 206° |
| 2026-05-05 13:41 | 51.30814 | -0.42688 | 8548 ft | 285 kts | 206° |
| 2026-05-05 13:41 | 51.29028 | -0.44098 | 9416 ft | 287 kts | 206° |
| 2026-05-05 13:41 | 51.27225 | -0.45518 | 10188 ft | 292 kts | 206° |
| 2026-05-05 13:41 | 51.25354 | -0.47019 | 10575 ft | 313 kts | 206° |
| 2026-05-05 13:42 | 51.23328 | -0.48648 | 10764 ft | 339 kts | 206° |
| 2026-05-05 13:42 | 51.21129 | -0.50376 | 10981 ft | 365 kts | 206° |
| 2026-05-05 13:42 | 51.18828 | -0.52153 | 11535 ft | 379 kts | 205° |
| 2026-05-05 13:42 | 51.16393 | -0.54027 | 12299 ft | 389 kts | 205° |
| 2026-05-05 13:43 | 51.13937 | -0.55920 | 13206 ft | 394 kts | 205° |
| 2026-05-05 13:43 | 51.11492 | -0.57806 | 14162 ft | 397 kts | 205° |
| 2026-05-05 13:43 | 51.08987 | -0.59735 | 14969 ft | 402 kts | 205° |
| 2026-05-05 13:43 | 51.06347 | -0.61202 | 15566 ft | 406 kts | 187° |
| 2026-05-05 13:44 | 51.03537 | -0.61139 | 16420 ft | 407 kts | 168° |
| 2026-05-05 13:44 | 51.00862 | -0.59715 | 17273 ft | 405 kts | 155° |
| 2026-05-05 13:44 | 50.98257 | -0.57910 | 17951 ft | 413 kts | 156° |
| 2026-05-05 13:44 | 50.95597 | -0.56102 | 18685 ft | 418 kts | 156° |
| 2026-05-05 13:45 | 50.92909 | -0.54297 | 19451 ft | 421 kts | 157° |
| 2026-05-05 13:45 | 50.90200 | -0.52492 | 20219 ft | 424 kts | 157° |
| 2026-05-05 13:45 | 50.87465 | -0.50681 | 20947 ft | 428 kts | 157° |
| 2026-05-05 13:45 | 50.84695 | -0.48856 | 21595 ft | 434 kts | 157° |
| 2026-05-05 13:46 | 50.81889 | -0.47013 | 22231 ft | 439 kts | 158° |
| 2026-05-05 13:46 | 50.79047 | -0.45151 | 22910 ft | 444 kts | 158° |
| 2026-05-05 13:46 | 50.76180 | -0.43276 | 23579 ft | 447 kts | 158° |
| 2026-05-05 13:46 | 50.73297 | -0.41394 | 24164 ft | 450 kts | 158° |
| 2026-05-05 13:47 | 50.70402 | -0.39506 | 24855 ft | 449 kts | 158° |
| 2026-05-05 13:47 | 50.67515 | -0.37626 | 25537 ft | 450 kts | 158° |
| 2026-05-05 13:47 | 50.64618 | -0.35741 | 26183 ft | 451 kts | 158° |
| 2026-05-05 13:47 | 50.61704 | -0.33850 | 26630 ft | 456 kts | 158° |
| 2026-05-05 13:48 | 50.58760 | -0.31940 | 27103 ft | 459 kts | 158° |
| 2026-05-05 13:48 | 50.55799 | -0.30021 | 27666 ft | 461 kts | 158° |
| 2026-05-05 13:48 | 50.52832 | -0.28101 | 28234 ft | 462 kts | 158° |
| 2026-05-05 13:48 | 50.49859 | -0.26180 | 28772 ft | 463 kts | 158° |
| 2026-05-05 13:49 | 50.46872 | -0.24252 | 29247 ft | 464 kts | 158° |
| 2026-05-05 13:49 | 50.43879 | -0.22323 | 29672 ft | 466 kts | 158° |
| 2026-05-05 13:49 | 50.40911 | -0.20414 | 30091 ft | 467 kts | 158° |
| 2026-05-05 13:49 | 50.37904 | -0.18482 | 30548 ft | 466 kts | 158° |
| 2026-05-05 13:50 | 50.34907 | -0.16558 | 30988 ft | 465 kts | 158° |
| 2026-05-05 13:50 | 50.31910 | -0.14637 | 31383 ft | 465 kts | 158° |
| 2026-05-05 13:50 | 50.28909 | -0.12716 | 31771 ft | 466 kts | 158° |
| 2026-05-05 13:50 | 50.25914 | -0.10801 | 32156 ft | 466 kts | 158° |
| 2026-05-05 13:51 | 50.22917 | -0.08887 | 32543 ft | 465 kts | 159° |
| 2026-05-05 13:51 | 50.19922 | -0.06968 | 32925 ft | 465 kts | 158° |
| 2026-05-05 13:51 | 50.16969 | -0.04931 | 33381 ft | 463 kts | 156° |
| 2026-05-05 13:51 | 50.14045 | -0.02850 | 33865 ft | 460 kts | 156° |
| 2026-05-05 13:52 | 50.11122 | -0.00817 | 34163 ft | 460 kts | 159° |
| 2026-05-05 13:52 | 50.08104 | 0.00864 | 34382 ft | 461 kts | 165° |
| 2026-05-05 13:52 | 50.04995 | 0.02080 | 34625 ft | 461 kts | 167° |
| 2026-05-05 13:52 | 50.01867 | 0.03255 | 34816 ft | 464 kts | 167° |
| 2026-05-05 13:53 | 49.96632 | 0.05257 | 34899 ft | 467 kts | 166° |
| 2026-05-05 13:53 | 49.90399 | 0.07686 | 34915 ft | 457 kts | 166° |
| 2026-05-05 13:54 | 49.84240 | 0.10097 | 34921 ft | 457 kts | 166° |
| 2026-05-05 13:54 | 49.78071 | 0.12503 | 34920 ft | 458 kts | 166° |
| 2026-05-05 13:55 | 49.71883 | 0.14909 | 34925 ft | 458 kts | 166° |
| 2026-05-05 13:55 | 49.65698 | 0.17326 | 34913 ft | 459 kts | 165° |
| 2026-05-05 13:56 | 49.59527 | 0.19833 | 34914 ft | 459 kts | 165° |
| 2026-05-05 13:56 | 49.53359 | 0.22346 | 34912 ft | 458 kts | 165° |
| 2026-05-05 13:57 | 49.47233 | 0.24821 | 34911 ft | 458 kts | 165° |
| 2026-05-05 13:57 | 49.41070 | 0.27301 | 34912 ft | 458 kts | 165° |
| 2026-05-05 13:58 | 49.34908 | 0.29774 | 34915 ft | 458 kts | 165° |
| 2026-05-05 13:58 | 49.28749 | 0.32257 | 34912 ft | 457 kts | 164° |
| 2026-05-05 13:59 | 49.19548 | 0.36140 | 34875 ft | 457 kts | 163° |
| 2026-05-05 14:00 | 49.10358 | 0.40008 | 34876 ft | 457 kts | 163° |
| 2026-05-05 14:00 | 49.04227 | 0.42569 | 34876 ft | 457 kts | 163° |
| 2026-05-05 14:01 | 48.98085 | 0.45128 | 34856 ft | 458 kts | 163° |
| 2026-05-05 14:01 | 48.91927 | 0.47688 | 34875 ft | 460 kts | 163° |
| 2026-05-05 14:02 | 48.85748 | 0.50250 | 34870 ft | 461 kts | 163° |
| 2026-05-05 14:02 | 48.79550 | 0.52813 | 34867 ft | 462 kts | 163° |
| 2026-05-05 14:03 | 48.73319 | 0.55296 | 34858 ft | 463 kts | 164° |
| 2026-05-05 14:03 | 48.67072 | 0.57714 | 34855 ft | 463 kts | 164° |
| 2026-05-05 14:04 | 48.60827 | 0.60141 | 34851 ft | 463 kts | 164° |
| 2026-05-05 14:04 | 48.54619 | 0.62559 | 34859 ft | 463 kts | 164° |
| 2026-05-05 14:05 | 48.48375 | 0.65022 | 34849 ft | 463 kts | 163° |
| 2026-05-05 14:05 | 48.42151 | 0.67568 | 34849 ft | 464 kts | 163° |
| 2026-05-05 14:06 | 48.35924 | 0.70106 | 34840 ft | 464 kts | 163° |
| 2026-05-05 14:06 | 48.29694 | 0.72627 | 34837 ft | 464 kts | 163° |
| 2026-05-05 14:07 | 48.23458 | 0.75136 | 34837 ft | 464 kts | 164° |
| 2026-05-05 14:07 | 48.17210 | 0.77599 | 34836 ft | 465 kts | 164° |
| 2026-05-05 14:08 | 48.10947 | 0.80053 | 34826 ft | 465 kts | 164° |
| 2026-05-05 14:08 | 48.04687 | 0.82506 | 34833 ft | 465 kts | 164° |
| 2026-05-05 14:09 | 47.98423 | 0.84958 | 34819 ft | 465 kts | 164° |
| 2026-05-05 14:09 | 47.92159 | 0.87405 | 34824 ft | 465 kts | 164° |
| 2026-05-05 14:10 | 47.85936 | 0.89830 | 34826 ft | 466 kts | 164° |
| 2026-05-05 14:10 | 47.79660 | 0.92265 | 34833 ft | 466 kts | 165° |
| 2026-05-05 14:11 | 47.73380 | 0.94692 | 34825 ft | 467 kts | 165° |
| 2026-05-05 14:11 | 47.67088 | 0.97119 | 34833 ft | 467 kts | 165° |
| 2026-05-05 14:12 | 47.60790 | 0.99544 | 34829 ft | 468 kts | 165° |
| 2026-05-05 14:12 | 47.54475 | 1.01970 | 34832 ft | 469 kts | 165° |
| 2026-05-05 14:13 | 47.48155 | 1.04391 | 34828 ft | 469 kts | 165° |
| 2026-05-05 14:13 | 47.41740 | 1.06178 | 34831 ft | 470 kts | 174° |
| 2026-05-05 14:14 | 47.35261 | 1.06321 | 34846 ft | 470 kts | 181° |
| 2026-05-05 14:14 | 47.28666 | 1.06097 | 34839 ft | 470 kts | 180° |
| 2026-05-05 14:15 | 47.22130 | 1.05928 | 34834 ft | 469 kts | 180° |
| 2026-05-05 14:15 | 47.15605 | 1.05785 | 34840 ft | 468 kts | 180° |
| 2026-05-05 14:16 | 47.09098 | 1.05644 | 34835 ft | 468 kts | 180° |
| 2026-05-05 14:16 | 47.02588 | 1.05500 | 34835 ft | 467 kts | 180° |
| 2026-05-05 14:17 | 46.96140 | 1.05258 | 34838 ft | 467 kts | 181° |
| 2026-05-05 14:17 | 46.89648 | 1.04951 | 34838 ft | 467 kts | 181° |
| 2026-05-05 14:18 | 46.83150 | 1.04656 | 34840 ft | 467 kts | 181° |
| 2026-05-05 14:18 | 46.76647 | 1.04374 | 34840 ft | 468 kts | 181° |
| 2026-05-05 14:19 | 46.70143 | 1.04095 | 34846 ft | 468 kts | 181° |
| 2026-05-05 14:19 | 46.63634 | 1.03815 | 34849 ft | 468 kts | 181° |
| 2026-05-05 14:20 | 46.57124 | 1.03536 | 34846 ft | 468 kts | 181° |
| 2026-05-05 14:20 | 46.50623 | 1.03812 | 34861 ft | 468 kts | 173° |
| 2026-05-05 14:21 | 46.44230 | 1.05672 | 34858 ft | 469 kts | 167° |
| 2026-05-05 14:21 | 46.37878 | 1.07861 | 34863 ft | 469 kts | 167° |
| 2026-05-05 14:22 | 46.31514 | 1.10012 | 34871 ft | 470 kts | 167° |
| 2026-05-05 14:22 | 46.25140 | 1.12137 | 34875 ft | 470 kts | 168° |
| 2026-05-05 14:23 | 46.18801 | 1.14238 | 34882 ft | 470 kts | 168° |
| 2026-05-05 14:23 | 46.12415 | 1.16352 | 34895 ft | 471 kts | 168° |
| 2026-05-05 14:24 | 46.06028 | 1.18461 | 34904 ft | 471 kts | 168° |
| 2026-05-05 14:24 | 45.99647 | 1.20564 | 34902 ft | 470 kts | 168° |
| 2026-05-05 14:25 | 45.93261 | 1.22664 | 34905 ft | 471 kts | 168° |
| 2026-05-05 14:25 | 45.86871 | 1.24760 | 34914 ft | 471 kts | 168° |
| 2026-05-05 14:26 | 45.80473 | 1.26853 | 34912 ft | 472 kts | 168° |
| 2026-05-05 14:26 | 45.74064 | 1.28945 | 34917 ft | 472 kts | 169° |
| 2026-05-05 14:27 | 45.67650 | 1.31035 | 34918 ft | 473 kts | 169° |
| 2026-05-05 14:27 | 45.61280 | 1.33104 | 34915 ft | 473 kts | 169° |
| 2026-05-05 14:28 | 45.54865 | 1.35185 | 34907 ft | 473 kts | 169° |
| 2026-05-05 14:28 | 45.48451 | 1.37260 | 34918 ft | 473 kts | 169° |
| 2026-05-05 14:29 | 45.42032 | 1.39330 | 34925 ft | 472 kts | 169° |
| 2026-05-05 14:29 | 45.35624 | 1.41393 | 34916 ft | 472 kts | 169° |
| 2026-05-05 14:30 | 45.29202 | 1.43457 | 34933 ft | 473 kts | 169° |
| 2026-05-05 14:30 | 45.22788 | 1.45513 | 34933 ft | 473 kts | 169° |
| 2026-05-05 14:31 | 45.19565 | 1.46544 | 35076 ft | 475 kts | 169° |
| 2026-05-05 14:31 | 45.16341 | 1.47575 | 35397 ft | 474 kts | 170° |
| 2026-05-05 14:31 | 45.13137 | 1.48599 | 35789 ft | 471 kts | 170° |
| 2026-05-05 14:31 | 45.09952 | 1.49616 | 36125 ft | 469 kts | 170° |
| 2026-05-05 14:32 | 45.06782 | 1.50626 | 36403 ft | 468 kts | 170° |
| 2026-05-05 14:32 | 45.03631 | 1.51628 | 36634 ft | 469 kts | 170° |
| 2026-05-05 14:32 | 45.00448 | 1.52640 | 36839 ft | 469 kts | 170° |
| 2026-05-05 14:32 | 44.97208 | 1.53668 | 36848 ft | 471 kts | 170° |
| 2026-05-05 14:33 | 44.90880 | 1.55674 | 36932 ft | 468 kts | 170° |
| 2026-05-05 14:33 | 44.84528 | 1.57683 | 36919 ft | 467 kts | 170° |
| 2026-05-05 14:34 | 44.78192 | 1.59681 | 36926 ft | 466 kts | 170° |
| 2026-05-05 14:34 | 44.71860 | 1.61675 | 36925 ft | 466 kts | 170° |
| 2026-05-05 14:35 | 44.65527 | 1.63664 | 36920 ft | 466 kts | 170° |
| 2026-05-05 14:35 | 44.59188 | 1.65651 | 36914 ft | 466 kts | 171° |
| 2026-05-05 14:36 | 44.52855 | 1.67632 | 36927 ft | 466 kts | 171° |
| 2026-05-05 14:36 | 44.46516 | 1.69610 | 36928 ft | 467 kts | 171° |
| 2026-05-05 14:37 | 44.40172 | 1.71586 | 36910 ft | 467 kts | 171° |
| 2026-05-05 14:37 | 44.33812 | 1.73562 | 36920 ft | 467 kts | 171° |
| 2026-05-05 14:38 | 44.27447 | 1.75407 | 36923 ft | 466 kts | 174° |
| 2026-05-05 14:38 | 44.21042 | 1.76805 | 36915 ft | 466 kts | 174° |
| 2026-05-05 14:39 | 44.14631 | 1.78183 | 36923 ft | 466 kts | 174° |
| 2026-05-05 14:39 | 44.08260 | 1.79577 | 36923 ft | 466 kts | 174° |
| 2026-05-05 14:40 | 44.01848 | 1.80987 | 36924 ft | 467 kts | 174° |
| 2026-05-05 14:40 | 43.95436 | 1.82373 | 36920 ft | 465 kts | 176° |
| 2026-05-05 14:41 | 43.89005 | 1.83080 | 36921 ft | 463 kts | 180° |
| 2026-05-05 14:41 | 43.82583 | 1.83664 | 36921 ft | 462 kts | 180° |
| 2026-05-05 14:42 | 43.76172 | 1.84270 | 36926 ft | 461 kts | 180° |
| 2026-05-05 14:42 | 43.69764 | 1.84891 | 36930 ft | 461 kts | 180° |
| 2026-05-05 14:43 | 43.64447 | 1.85407 | 36929 ft | 461 kts | 180° |
| 2026-05-05 14:43 | 43.58055 | 1.86026 | 36927 ft | 460 kts | 180° |
| 2026-05-05 14:44 | 43.50636 | 1.86741 | 36928 ft | 459 kts | 180° |
| 2026-05-05 14:44 | 43.45296 | 1.87254 | 36922 ft | 459 kts | 180° |
| 2026-05-05 14:45 | 43.38925 | 1.87867 | 36916 ft | 458 kts | 181° |
| 2026-05-05 14:45 | 43.32610 | 1.88472 | 36924 ft | 457 kts | 181° |
| 2026-05-05 14:46 | 43.26262 | 1.89082 | 36924 ft | 457 kts | 181° |
| 2026-05-05 14:46 | 43.19921 | 1.89692 | 36913 ft | 457 kts | 181° |
| 2026-05-05 14:47 | 43.13590 | 1.90300 | 36917 ft | 456 kts | 181° |
| 2026-05-05 14:47 | 43.07269 | 1.90905 | 36917 ft | 455 kts | 181° |
| 2026-05-05 14:48 | 43.00967 | 1.91506 | 36920 ft | 453 kts | 181° |
| 2026-05-05 14:48 | 42.94703 | 1.92105 | 36923 ft | 449 kts | 182° |
| 2026-05-05 14:49 | 42.88477 | 1.92697 | 36928 ft | 448 kts | 182° |
| 2026-05-05 14:49 | 42.82277 | 1.93284 | 36915 ft | 446 kts | 182° |
| 2026-05-05 14:50 | 42.76103 | 1.93869 | 36906 ft | 444 kts | 182° |
| 2026-05-05 14:50 | 42.69933 | 1.94452 | 36927 ft | 445 kts | 182° |
| 2026-05-05 14:51 | 42.63744 | 1.95358 | 36900 ft | 451 kts | 178° |
| 2026-05-05 14:51 | 42.57542 | 1.96635 | 36892 ft | 451 kts | 178° |
| 2026-05-05 14:52 | 42.51343 | 1.97889 | 36907 ft | 450 kts | 178° |
| 2026-05-05 14:52 | 42.45184 | 1.99115 | 36899 ft | 451 kts | 178° |
| 2026-05-05 14:53 | 42.38978 | 2.00348 | 36897 ft | 451 kts | 178° |
| 2026-05-05 14:53 | 42.32777 | 2.01228 | 36903 ft | 446 kts | 182° |
| 2026-05-05 14:54 | 42.26592 | 2.01796 | 36900 ft | 445 kts | 182° |
| 2026-05-05 14:54 | 42.20410 | 2.02374 | 36877 ft | 445 kts | 182° |
| 2026-05-05 14:55 | 42.14236 | 2.02961 | 36881 ft | 444 kts | 182° |
| 2026-05-05 14:55 | 42.08082 | 2.03550 | 36902 ft | 444 kts | 182° |
| 2026-05-05 14:56 | 42.01913 | 2.04141 | 36901 ft | 444 kts | 182° |
| 2026-05-05 14:56 | 41.95739 | 2.04730 | 36878 ft | 445 kts | 182° |
| 2026-05-05 14:57 | 41.89562 | 2.05320 | 36906 ft | 445 kts | 182° |
| 2026-05-05 14:57 | 41.83371 | 2.05909 | 36902 ft | 446 kts | 182° |
| 2026-05-05 14:58 | 41.77182 | 2.06496 | 36912 ft | 446 kts | 182° |
| 2026-05-05 14:58 | 41.71038 | 2.07079 | 36907 ft | 445 kts | 183° |
| 2026-05-05 14:59 | 41.64852 | 2.07659 | 36910 ft | 445 kts | 183° |
| 2026-05-05 14:59 | 41.58663 | 2.08228 | 36913 ft | 446 kts | 183° |
| 2026-05-05 15:00 | 41.53522 | 2.08702 | 36891 ft | 445 kts | 183° |
| 2026-05-05 15:00 | 41.46307 | 2.09368 | 36911 ft | 444 kts | 184° |
| 2026-05-05 15:01 | 41.40136 | 2.09935 | 36923 ft | 444 kts | 184° |
| 2026-05-05 15:01 | 41.33964 | 2.10500 | 36907 ft | 445 kts | 183° |
| 2026-05-05 15:02 | 41.27790 | 2.11740 | 36903 ft | 456 kts | 173° |
| 2026-05-05 15:02 | 41.21652 | 2.13989 | 36911 ft | 457 kts | 173° |
| 2026-05-05 15:03 | 41.15554 | 2.16202 | 36914 ft | 458 kts | 173° |
| 2026-05-05 15:03 | 41.09399 | 2.18399 | 36889 ft | 458 kts | 173° |
| 2026-05-05 15:04 | 41.03240 | 2.20586 | 36901 ft | 459 kts | 173° |
| 2026-05-05 15:04 | 40.97066 | 2.22774 | 36897 ft | 459 kts | 173° |
| 2026-05-05 15:05 | 40.87804 | 2.26051 | 36862 ft | 460 kts | 173° |
| 2026-05-05 15:06 | 40.81633 | 2.28230 | 36886 ft | 458 kts | 173° |
| 2026-05-05 15:06 | 40.75485 | 2.30398 | 36894 ft | 456 kts | 173° |
| 2026-05-05 15:07 | 40.69373 | 2.32553 | 36891 ft | 454 kts | 173° |
| 2026-05-05 15:07 | 40.63286 | 2.34694 | 36894 ft | 452 kts | 173° |
| 2026-05-05 15:08 | 40.57216 | 2.36805 | 36895 ft | 450 kts | 174° |
| 2026-05-05 15:08 | 40.51162 | 2.38897 | 36897 ft | 450 kts | 174° |
| 2026-05-05 15:09 | 40.45111 | 2.40992 | 36899 ft | 450 kts | 174° |
| 2026-05-05 15:09 | 40.39062 | 2.43088 | 36891 ft | 450 kts | 174° |
| 2026-05-05 15:10 | 40.33009 | 2.45182 | 36898 ft | 450 kts | 174° |
| 2026-05-05 15:10 | 40.26947 | 2.47274 | 36900 ft | 451 kts | 174° |
| 2026-05-05 15:11 | 40.20878 | 2.49365 | 36866 ft | 451 kts | 174° |
| 2026-05-05 15:11 | 40.14804 | 2.51458 | 36893 ft | 452 kts | 174° |
| 2026-05-05 15:12 | 40.08758 | 2.53541 | 36901 ft | 453 kts | 174° |
| 2026-05-05 15:12 | 40.02654 | 2.55642 | 36896 ft | 454 kts | 174° |
| 2026-05-05 15:13 | 39.96539 | 2.57742 | 36902 ft | 454 kts | 174° |
| 2026-05-05 15:13 | 39.90418 | 2.59840 | 36905 ft | 455 kts | 174° |
| 2026-05-05 15:14 | 39.84285 | 2.61939 | 36919 ft | 456 kts | 174° |
| 2026-05-05 15:14 | 39.78149 | 2.64035 | 36900 ft | 456 kts | 174° |
| 2026-05-05 15:15 | 39.72017 | 2.66126 | 36907 ft | 455 kts | 173° |
| 2026-05-05 15:15 | 39.65931 | 2.68200 | 36909 ft | 454 kts | 173° |
| 2026-05-05 15:16 | 39.59826 | 2.70272 | 36906 ft | 453 kts | 173° |
| 2026-05-05 15:16 | 39.53732 | 2.72338 | 36892 ft | 452 kts | 173° |
| 2026-05-05 15:17 | 39.47657 | 2.74395 | 36908 ft | 451 kts | 173° |
| 2026-05-05 15:17 | 39.41594 | 2.76449 | 36912 ft | 451 kts | 173° |
| 2026-05-05 15:18 | 39.35535 | 2.78555 | 36921 ft | 451 kts | 173° |
| 2026-05-05 15:18 | 39.29474 | 2.80670 | 36895 ft | 451 kts | 172° |
| 2026-05-05 15:19 | 39.23412 | 2.82776 | 36907 ft | 451 kts | 172° |
| 2026-05-05 15:19 | 39.17343 | 2.84876 | 36914 ft | 452 kts | 172° |
| 2026-05-05 15:20 | 39.11259 | 2.86978 | 36916 ft | 453 kts | 172° |
| 2026-05-05 15:20 | 39.05163 | 2.89081 | 36900 ft | 454 kts | 172° |
| 2026-05-05 15:21 | 38.99062 | 2.91166 | 36919 ft | 454 kts | 172° |
| 2026-05-05 15:21 | 38.92949 | 2.93218 | 36915 ft | 454 kts | 172° |
| 2026-05-05 15:22 | 38.86837 | 2.95298 | 36918 ft | 455 kts | 172° |
| 2026-05-05 15:22 | 38.80728 | 2.97392 | 36921 ft | 454 kts | 172° |
| 2026-05-05 15:23 | 38.74622 | 2.99480 | 36924 ft | 454 kts | 172° |
| 2026-05-05 15:23 | 38.68515 | 3.01561 | 36926 ft | 454 kts | 172° |
| 2026-05-05 15:24 | 38.62409 | 3.03637 | 36925 ft | 454 kts | 172° |
| 2026-05-05 15:24 | 38.56342 | 3.05696 | 36909 ft | 454 kts | 172° |
| 2026-05-05 15:25 | 38.50235 | 3.07765 | 36925 ft | 454 kts | 172° |
| 2026-05-05 15:25 | 38.44126 | 3.09831 | 36930 ft | 454 kts | 172° |
| 2026-05-05 15:26 | 38.38009 | 3.11897 | 36932 ft | 455 kts | 172° |
| 2026-05-05 15:26 | 38.31885 | 3.13962 | 36931 ft | 455 kts | 172° |
| 2026-05-05 15:27 | 38.25755 | 3.16019 | 36935 ft | 456 kts | 172° |
| 2026-05-05 15:27 | 38.19624 | 3.18061 | 36937 ft | 456 kts | 172° |
| 2026-05-05 15:28 | 38.13485 | 3.20104 | 36915 ft | 456 kts | 172° |
| 2026-05-05 15:28 | 38.07333 | 3.21956 | 36932 ft | 454 kts | 174° |
| 2026-05-05 15:29 | 38.01159 | 3.23630 | 36956 ft | 454 kts | 174° |
| 2026-05-05 15:29 | 37.94972 | 3.25317 | 36951 ft | 455 kts | 174° |
| 2026-05-05 15:30 | 37.88776 | 3.27035 | 36933 ft | 456 kts | 174° |
| 2026-05-05 15:30 | 37.82577 | 3.28765 | 36947 ft | 457 kts | 174° |
| 2026-05-05 15:31 | 37.76370 | 3.30495 | 36945 ft | 457 kts | 174° |
| 2026-05-05 15:31 | 37.70148 | 3.32226 | 36961 ft | 458 kts | 174° |
| 2026-05-05 15:32 | 37.64978 | 3.33661 | 36944 ft | 458 kts | 173° |
| 2026-05-05 15:32 | 37.58755 | 3.35386 | 36954 ft | 458 kts | 173° |
| 2026-05-05 15:33 | 37.52521 | 3.37111 | 36959 ft | 459 kts | 173° |
| 2026-05-05 15:33 | 37.45272 | 3.39113 | 36959 ft | 459 kts | 173° |
| 2026-05-05 15:34 | 37.40046 | 3.40553 | 36946 ft | 459 kts | 173° |
| 2026-05-05 15:34 | 37.33806 | 3.42271 | 36965 ft | 459 kts | 173° |
| 2026-05-05 15:35 | 37.27564 | 3.43987 | 36971 ft | 460 kts | 173° |
| 2026-05-05 15:35 | 37.20292 | 3.45981 | 36966 ft | 460 kts | 173° |
| 2026-05-05 15:36 | 37.15096 | 3.47404 | 36963 ft | 460 kts | 173° |
| 2026-05-05 15:36 | 37.08834 | 3.49116 | 36969 ft | 461 kts | 173° |
| 2026-05-05 15:37 | 37.02567 | 3.50826 | 36959 ft | 461 kts | 173° |
| 2026-05-05 15:37 | 36.96302 | 3.52534 | 36970 ft | 461 kts | 173° |
| 2026-05-05 15:38 | 36.90033 | 3.54239 | 36967 ft | 461 kts | 173° |
| 2026-05-05 15:38 | 36.83758 | 3.55944 | 36985 ft | 462 kts | 173° |
| 2026-05-05 15:39 | 36.77451 | 3.57514 | 36984 ft | 460 kts | 177° |
| 2026-05-05 15:39 | 36.71104 | 3.58608 | 36983 ft | 461 kts | 178° |
| 2026-05-05 15:40 | 36.64749 | 3.59678 | 36978 ft | 461 kts | 178° |
| 2026-05-05 15:40 | 36.58384 | 3.60768 | 36974 ft | 462 kts | 178° |
| 2026-05-05 15:41 | 36.52013 | 3.61870 | 36963 ft | 462 kts | 178° |
| 2026-05-05 15:41 | 36.45645 | 3.62973 | 36961 ft | 462 kts | 177° |
| 2026-05-05 15:42 | 36.39284 | 3.64074 | 36956 ft | 461 kts | 178° |
| 2026-05-05 15:42 | 36.32919 | 3.65170 | 36970 ft | 462 kts | 178° |
| 2026-05-05 15:43 | 36.26551 | 3.66266 | 36958 ft | 462 kts | 178° |
| 2026-05-05 15:43 | 36.20182 | 3.67360 | 36962 ft | 462 kts | 178° |
| 2026-05-05 15:44 | 36.13808 | 3.68453 | 36948 ft | 463 kts | 178° |
| 2026-05-05 15:44 | 36.07424 | 3.69548 | 36959 ft | 463 kts | 178° |
| 2026-05-05 15:45 | 36.01035 | 3.70640 | 36961 ft | 464 kts | 178° |
| 2026-05-05 15:45 | 35.94678 | 3.71725 | 36942 ft | 464 kts | 178° |
| 2026-05-05 15:46 | 35.88268 | 3.72817 | 36928 ft | 465 kts | 178° |
| 2026-05-05 15:46 | 35.81858 | 3.73909 | 36929 ft | 465 kts | 178° |
| 2026-05-05 15:47 | 35.75450 | 3.74998 | 36918 ft | 465 kts | 178° |
| 2026-05-05 15:47 | 35.69051 | 3.76084 | 36882 ft | 464 kts | 178° |
| 2026-05-05 15:48 | 35.62644 | 3.77170 | 36904 ft | 465 kts | 178° |
| 2026-05-05 15:48 | 35.56235 | 3.78254 | 36909 ft | 466 kts | 178° |
| 2026-05-05 15:49 | 35.49805 | 3.79340 | 36904 ft | 467 kts | 178° |
| 2026-05-05 15:49 | 35.43366 | 3.80428 | 36878 ft | 468 kts | 178° |
| 2026-05-05 15:50 | 35.36954 | 3.81510 | 36882 ft | 468 kts | 178° |
| 2026-05-05 15:50 | 35.30500 | 3.82596 | 36897 ft | 468 kts | 178° |
| 2026-05-05 15:51 | 35.24037 | 3.83682 | 36894 ft | 469 kts | 178° |
| 2026-05-05 15:51 | 35.17564 | 3.84768 | 36864 ft | 469 kts | 178° |
| 2026-05-05 15:52 | 35.11097 | 3.85852 | 36868 ft | 469 kts | 178° |
| 2026-05-05 15:52 | 35.04640 | 3.86932 | 36879 ft | 468 kts | 178° |
| 2026-05-05 15:53 | 34.98186 | 3.88010 | 36878 ft | 468 kts | 178° |
| 2026-05-05 15:53 | 34.91728 | 3.89086 | 36862 ft | 468 kts | 179° |
| 2026-05-05 15:54 | 34.85264 | 3.90162 | 36885 ft | 469 kts | 179° |
| 2026-05-05 15:54 | 34.78793 | 3.91237 | 36892 ft | 469 kts | 179° |
| 2026-05-05 15:55 | 34.72365 | 3.92303 | 36897 ft | 469 kts | 179° |
| 2026-05-05 15:55 | 34.65845 | 3.93383 | 36872 ft | 470 kts | 179° |
| 2026-05-05 15:56 | 34.59408 | 3.94448 | 36884 ft | 470 kts | 179° |
| 2026-05-05 15:56 | 34.52919 | 3.95520 | 36888 ft | 471 kts | 179° |
| 2026-05-05 15:57 | 34.46428 | 3.96590 | 36875 ft | 471 kts | 179° |
| 2026-05-05 15:57 | 34.39933 | 3.97659 | 36851 ft | 471 kts | 179° |
| 2026-05-05 15:58 | 34.33441 | 3.98728 | 36858 ft | 471 kts | 179° |
| 2026-05-05 15:58 | 34.26944 | 3.99793 | 36859 ft | 471 kts | 179° |
| 2026-05-05 15:59 | 34.20442 | 4.00859 | 36847 ft | 472 kts | 179° |
| 2026-05-05 15:59 | 34.13932 | 4.01924 | 36816 ft | 472 kts | 180° |
| 2026-05-05 16:00 | 34.07458 | 4.02264 | 36836 ft | 460 kts | 190° |
| 2026-05-05 16:00 | 34.01152 | 4.01394 | 36839 ft | 456 kts | 194° |
| 2026-05-05 16:01 | 33.94858 | 4.00413 | 36830 ft | 456 kts | 194° |
| 2026-05-05 16:01 | 33.88556 | 3.99461 | 36782 ft | 457 kts | 194° |
| 2026-05-05 16:02 | 33.82251 | 3.98529 | 36805 ft | 457 kts | 194° |
| 2026-05-05 16:02 | 33.75941 | 3.97602 | 36815 ft | 457 kts | 194° |
| 2026-05-05 16:03 | 33.69632 | 3.96677 | 36810 ft | 457 kts | 194° |
| 2026-05-05 16:03 | 33.63365 | 3.95757 | 36810 ft | 457 kts | 194° |
| 2026-05-05 16:04 | 33.57056 | 3.94835 | 36798 ft | 456 kts | 195° |
| 2026-05-05 16:04 | 33.50755 | 3.93913 | 36800 ft | 456 kts | 195° |
| 2026-05-05 16:05 | 33.44451 | 3.92992 | 36804 ft | 456 kts | 195° |
| 2026-05-05 16:05 | 33.38146 | 3.92072 | 36802 ft | 457 kts | 195° |
| 2026-05-05 16:06 | 33.31837 | 3.91154 | 36804 ft | 457 kts | 195° |
| 2026-05-05 16:06 | 33.25527 | 3.90236 | 36792 ft | 457 kts | 195° |
| 2026-05-05 16:07 | 33.19215 | 3.89320 | 36786 ft | 457 kts | 195° |
| 2026-05-05 16:07 | 33.12906 | 3.88405 | 36790 ft | 457 kts | 195° |
| 2026-05-05 16:08 | 33.06596 | 3.87492 | 36774 ft | 456 kts | 195° |
| 2026-05-05 16:08 | 33.00296 | 3.86581 | 36777 ft | 456 kts | 195° |
| 2026-05-05 16:09 | 32.94000 | 3.85669 | 36775 ft | 456 kts | 195° |
| 2026-05-05 16:09 | 32.87700 | 3.84757 | 36776 ft | 456 kts | 195° |
| 2026-05-05 16:10 | 32.81397 | 3.83847 | 36743 ft | 456 kts | 196° |
| 2026-05-05 16:10 | 32.75140 | 3.82945 | 36756 ft | 456 kts | 196° |
| 2026-05-05 16:11 | 32.68833 | 3.82036 | 36794 ft | 457 kts | 196° |
| 2026-05-05 16:12 | 32.56178 | 3.80217 | 36784 ft | 459 kts | 196° |
| 2026-05-05 16:13 | 32.40280 | 3.78156 | 36848 ft | 467 kts | 190° |
| 2026-05-05 16:13 | 32.33693 | 3.78721 | 36750 ft | 481 kts | 181° |
| 2026-05-05 16:14 | 32.20441 | 3.81260 | 36734 ft | 483 kts | 181° |
| 2026-05-05 16:15 | 32.07148 | 3.83729 | 36743 ft | 484 kts | 181° |
| 2026-05-05 16:16 | 31.93812 | 3.86173 | 36737 ft | 485 kts | 181° |
| 2026-05-05 16:17 | 31.83836 | 3.87998 | 36726 ft | 486 kts | 181° |
| 2026-05-05 16:18 | 31.73807 | 3.89829 | 36683 ft | 486 kts | 181° |
| 2026-05-05 16:19 | 31.63797 | 3.91655 | 36718 ft | 485 kts | 182° |
| 2026-05-05 16:19 | 31.53781 | 3.93474 | 36713 ft | 486 kts | 182° |
| 2026-05-05 16:20 | 31.41551 | 3.95693 | 36706 ft | 485 kts | 182° |
| 2026-05-05 16:22 | 31.24862 | 3.98710 | 36705 ft | 485 kts | 182° |
| 2026-05-05 16:23 | 31.11505 | 4.01117 | 36689 ft | 485 kts | 182° |
| 2026-05-05 16:23 | 31.01502 | 4.02915 | 36695 ft | 485 kts | 182° |
| 2026-05-05 16:24 | 30.94836 | 4.04112 | 36688 ft | 485 kts | 182° |
| 2026-05-05 16:25 | 30.84879 | 4.05895 | 36675 ft | 484 kts | 182° |
| 2026-05-05 16:25 | 30.74869 | 4.07683 | 36690 ft | 486 kts | 182° |
| 2026-05-05 16:26 | 30.61475 | 4.10071 | 36673 ft | 487 kts | 182° |
| 2026-05-05 16:27 | 30.54771 | 4.11264 | 36674 ft | 488 kts | 182° |
| 2026-05-05 16:27 | 30.48059 | 4.12457 | 36670 ft | 488 kts | 182° |
| 2026-05-05 16:28 | 30.41343 | 4.13649 | 36674 ft | 488 kts | 182° |
| 2026-05-05 16:28 | 30.34628 | 4.14839 | 36682 ft | 488 kts | 182° |
| 2026-05-05 16:29 | 30.27919 | 4.16027 | 36668 ft | 487 kts | 182° |
| 2026-05-05 16:29 | 30.21217 | 4.17212 | 36668 ft | 487 kts | 182° |
| 2026-05-05 16:30 | 30.14522 | 4.18393 | 36674 ft | 487 kts | 182° |
| 2026-05-05 16:30 | 30.07827 | 4.19573 | 36664 ft | 487 kts | 182° |
| 2026-05-05 16:31 | 30.01130 | 4.20751 | 36665 ft | 486 kts | 181° |
| 2026-05-05 16:31 | 29.94438 | 4.21927 | 36682 ft | 487 kts | 181° |
| 2026-05-05 16:32 | 29.87731 | 4.23104 | 36675 ft | 487 kts | 181° |
| 2026-05-05 16:32 | 29.81025 | 4.24280 | 36676 ft | 488 kts | 181° |
| 2026-05-05 16:33 | 29.74312 | 4.25455 | 36641 ft | 488 kts | 181° |
| 2026-05-05 16:33 | 29.67605 | 4.26634 | 36668 ft | 487 kts | 181° |
| 2026-05-05 16:34 | 29.60945 | 4.27823 | 36681 ft | 488 kts | 181° |
| 2026-05-05 16:34 | 29.54243 | 4.29021 | 36682 ft | 487 kts | 181° |
| 2026-05-05 16:35 | 29.47545 | 4.30215 | 36688 ft | 487 kts | 181° |
| 2026-05-05 16:35 | 29.40855 | 4.31405 | 36691 ft | 486 kts | 181° |
| 2026-05-05 16:36 | 29.34174 | 4.32590 | 36690 ft | 486 kts | 181° |
| 2026-05-05 16:36 | 29.27498 | 4.33777 | 36686 ft | 484 kts | 181° |
| 2026-05-05 16:37 | 29.20841 | 4.34956 | 36703 ft | 484 kts | 181° |
| 2026-05-05 16:37 | 29.14189 | 4.36125 | 36673 ft | 483 kts | 181° |
| 2026-05-05 16:38 | 29.07527 | 4.37302 | 36696 ft | 485 kts | 181° |
| 2026-05-05 16:38 | 29.00852 | 4.38480 | 36705 ft | 486 kts | 181° |
| 2026-05-05 16:39 | 28.94164 | 4.39658 | 36706 ft | 487 kts | 181° |
| 2026-05-05 16:39 | 28.87470 | 4.40836 | 36660 ft | 487 kts | 181° |
| 2026-05-05 16:40 | 28.80787 | 4.42011 | 36705 ft | 485 kts | 181° |
| 2026-05-05 16:40 | 28.74156 | 4.43174 | 36707 ft | 485 kts | 181° |
| 2026-05-05 16:41 | 28.67484 | 4.44343 | 36715 ft | 485 kts | 181° |
| 2026-05-05 16:41 | 28.60819 | 4.45509 | 36713 ft | 485 kts | 181° |
| 2026-05-05 16:42 | 28.54158 | 4.46674 | 36711 ft | 484 kts | 181° |
| 2026-05-05 16:42 | 28.47505 | 4.47839 | 36719 ft | 483 kts | 181° |
| 2026-05-05 16:43 | 28.40856 | 4.49030 | 36719 ft | 483 kts | 181° |
| 2026-05-05 16:43 | 28.34210 | 4.50227 | 36729 ft | 483 kts | 181° |
| 2026-05-05 16:44 | 28.27566 | 4.51420 | 36700 ft | 483 kts | 181° |
| 2026-05-05 16:44 | 28.20928 | 4.52608 | 36723 ft | 483 kts | 181° |
| 2026-05-05 16:45 | 28.14328 | 4.53787 | 36732 ft | 483 kts | 181° |
| 2026-05-05 16:45 | 28.07682 | 4.54971 | 36736 ft | 484 kts | 181° |
| 2026-05-05 16:46 | 28.01019 | 4.56158 | 36733 ft | 484 kts | 181° |
| 2026-05-05 16:46 | 27.94363 | 4.57342 | 36737 ft | 484 kts | 180° |
| 2026-05-05 16:47 | 27.87700 | 4.58527 | 36734 ft | 485 kts | 180° |
| 2026-05-05 16:47 | 27.81030 | 4.59710 | 36736 ft | 485 kts | 180° |
| 2026-05-05 16:48 | 27.74354 | 4.60894 | 36733 ft | 485 kts | 180° |
| 2026-05-05 16:48 | 27.67722 | 4.62069 | 36738 ft | 485 kts | 180° |
| 2026-05-05 16:49 | 27.61048 | 4.63249 | 36739 ft | 485 kts | 180° |
| 2026-05-05 16:49 | 27.54373 | 4.64428 | 36740 ft | 485 kts | 180° |
| 2026-05-05 16:50 | 27.47699 | 4.65605 | 36743 ft | 485 kts | 180° |
| 2026-05-05 16:50 | 27.41028 | 4.66780 | 36739 ft | 485 kts | 180° |
| 2026-05-05 16:51 | 27.34361 | 4.67954 | 36741 ft | 484 kts | 180° |
| 2026-05-05 16:51 | 27.27701 | 4.69125 | 36741 ft | 484 kts | 180° |
| 2026-05-05 16:52 | 27.21047 | 4.70293 | 36748 ft | 484 kts | 180° |
| 2026-05-05 16:52 | 27.14401 | 4.71458 | 36755 ft | 484 kts | 180° |
| 2026-05-05 16:53 | 27.07751 | 4.72622 | 36732 ft | 484 kts | 180° |
| 2026-05-05 16:53 | 27.01106 | 4.73784 | 36756 ft | 483 kts | 180° |
| 2026-05-05 16:54 | 26.94462 | 4.74945 | 36759 ft | 483 kts | 180° |
| 2026-05-05 16:54 | 26.87818 | 4.76104 | 36761 ft | 484 kts | 180° |
| 2026-05-05 16:55 | 26.81162 | 4.77264 | 36755 ft | 484 kts | 180° |
| 2026-05-05 16:55 | 26.74508 | 4.78422 | 36771 ft | 484 kts | 179° |
| 2026-05-05 16:56 | 26.67856 | 4.79579 | 36772 ft | 484 kts | 179° |
| 2026-05-05 16:56 | 26.61205 | 4.80734 | 36777 ft | 484 kts | 179° |
| 2026-05-05 16:57 | 26.54545 | 4.81889 | 36782 ft | 485 kts | 179° |
| 2026-05-05 16:57 | 26.47870 | 4.83044 | 36747 ft | 485 kts | 179° |
| 2026-05-05 16:58 | 26.41205 | 4.84199 | 36786 ft | 484 kts | 179° |
| 2026-05-05 16:58 | 26.34594 | 4.85342 | 36793 ft | 484 kts | 179° |
| 2026-05-05 16:59 | 26.27937 | 4.86491 | 36793 ft | 484 kts | 179° |
| 2026-05-05 16:59 | 26.21284 | 4.87638 | 36796 ft | 484 kts | 179° |
| 2026-05-05 17:00 | 26.14634 | 4.88784 | 36805 ft | 483 kts | 179° |
| 2026-05-05 17:00 | 26.07982 | 4.89929 | 36804 ft | 483 kts | 179° |
| 2026-05-05 17:01 | 26.01338 | 4.91070 | 36806 ft | 483 kts | 179° |
| 2026-05-05 17:01 | 25.94699 | 4.92210 | 36813 ft | 482 kts | 179° |
| 2026-05-05 17:02 | 25.88066 | 4.93347 | 36824 ft | 482 kts | 179° |
| 2026-05-05 17:02 | 25.81434 | 4.94483 | 36811 ft | 482 kts | 179° |
| 2026-05-05 17:03 | 25.74802 | 4.95617 | 36828 ft | 483 kts | 179° |
| 2026-05-05 17:03 | 25.68144 | 4.96753 | 36828 ft | 485 kts | 179° |
| 2026-05-05 17:04 | 25.61466 | 4.97892 | 36834 ft | 487 kts | 179° |
| 2026-05-05 17:04 | 25.54756 | 4.99036 | 36810 ft | 489 kts | 179° |
| 2026-05-05 17:05 | 25.48068 | 5.00175 | 36827 ft | 491 kts | 178° |
| 2026-05-05 17:05 | 25.41305 | 5.01326 | 36828 ft | 492 kts | 178° |
| 2026-05-05 17:06 | 25.34526 | 5.02478 | 36830 ft | 493 kts | 178° |
| 2026-05-05 17:06 | 25.27731 | 5.03632 | 36824 ft | 494 kts | 178° |
| 2026-05-05 17:07 | 25.20931 | 5.04785 | 36814 ft | 494 kts | 178° |
| 2026-05-05 17:07 | 25.14144 | 5.05935 | 36825 ft | 494 kts | 178° |
| 2026-05-05 17:08 | 25.07357 | 5.07083 | 36832 ft | 493 kts | 178° |
| 2026-05-05 17:08 | 25.01717 | 5.08036 | 36836 ft | 493 kts | 178° |
| 2026-05-05 17:09 | 24.94935 | 5.09180 | 36829 ft | 493 kts | 178° |
| 2026-05-05 17:09 | 24.88162 | 5.10323 | 36831 ft | 492 kts | 178° |
| 2026-05-05 17:10 | 24.81392 | 5.11464 | 36848 ft | 492 kts | 178° |
| 2026-05-05 17:10 | 24.74619 | 5.12602 | 36843 ft | 492 kts | 178° |
| 2026-05-05 17:11 | 24.67843 | 5.13741 | 36846 ft | 493 kts | 178° |
| 2026-05-05 17:11 | 24.61059 | 5.14880 | 36851 ft | 493 kts | 178° |
| 2026-05-05 17:12 | 24.54275 | 5.16017 | 36857 ft | 493 kts | 178° |
| 2026-05-05 17:12 | 24.47495 | 5.17153 | 36853 ft | 493 kts | 178° |
| 2026-05-05 17:13 | 24.40714 | 5.18288 | 36867 ft | 493 kts | 178° |
| 2026-05-05 17:13 | 24.33926 | 5.19422 | 36871 ft | 494 kts | 178° |
| 2026-05-05 17:14 | 24.27178 | 5.20548 | 36851 ft | 494 kts | 178° |
| 2026-05-05 17:14 | 24.20383 | 5.21682 | 36859 ft | 494 kts | 178° |
| 2026-05-05 17:15 | 24.13585 | 5.22814 | 36864 ft | 494 kts | 178° |
| 2026-05-05 17:15 | 24.06784 | 5.23946 | 36865 ft | 495 kts | 178° |
| 2026-05-05 17:16 | 23.99974 | 5.25078 | 36855 ft | 495 kts | 178° |
| 2026-05-05 17:16 | 23.93164 | 5.26209 | 36845 ft | 495 kts | 178° |
| 2026-05-05 17:17 | 23.86358 | 5.27338 | 36848 ft | 495 kts | 178° |
| 2026-05-05 17:17 | 23.79547 | 5.28467 | 36853 ft | 495 kts | 178° |
| 2026-05-05 17:18 | 23.72742 | 5.29594 | 36845 ft | 495 kts | 178° |
| 2026-05-05 17:18 | 23.65929 | 5.30720 | 36849 ft | 495 kts | 178° |
| 2026-05-05 17:19 | 23.59123 | 5.31844 | 36854 ft | 494 kts | 178° |
| 2026-05-05 17:19 | 23.52318 | 5.32967 | 36855 ft | 495 kts | 178° |
| 2026-05-05 17:20 | 23.45514 | 5.34089 | 36898 ft | 495 kts | 178° |
| 2026-05-05 17:20 | 23.38703 | 5.35210 | 36894 ft | 495 kts | 178° |
| 2026-05-05 17:21 | 23.31897 | 5.36330 | 36869 ft | 495 kts | 178° |
| 2026-05-05 17:22 | 23.21695 | 5.38006 | 36892 ft | 494 kts | 178° |
| 2026-05-05 17:22 | 23.14942 | 5.39114 | 36899 ft | 495 kts | 178° |
| 2026-05-05 17:23 | 23.08133 | 5.40230 | 36885 ft | 495 kts | 178° |
| 2026-05-05 17:23 | 23.01326 | 5.41345 | 36852 ft | 495 kts | 178° |
| 2026-05-05 17:24 | 22.94517 | 5.42459 | 36871 ft | 494 kts | 178° |
| 2026-05-05 17:24 | 22.87731 | 5.43568 | 36855 ft | 493 kts | 178° |
| 2026-05-05 17:25 | 22.80968 | 5.44870 | 36853 ft | 498 kts | 172° |
| 2026-05-05 17:25 | 22.74378 | 5.47369 | 36851 ft | 504 kts | 164° |
| 2026-05-05 17:26 | 22.67889 | 5.50272 | 36822 ft | 504 kts | 162° |
| 2026-05-05 17:26 | 22.61404 | 5.53154 | 36815 ft | 503 kts | 162° |
| 2026-05-05 17:27 | 22.54971 | 5.55973 | 36823 ft | 502 kts | 163° |
| 2026-05-05 17:27 | 22.48498 | 5.58789 | 36810 ft | 501 kts | 163° |
| 2026-05-05 17:28 | 22.42030 | 5.61598 | 36810 ft | 500 kts | 163° |
| 2026-05-05 17:28 | 22.35570 | 5.64402 | 36779 ft | 500 kts | 163° |
| 2026-05-05 17:29 | 22.29094 | 5.67211 | 36808 ft | 503 kts | 163° |
| 2026-05-05 17:29 | 22.22561 | 5.70042 | 36798 ft | 508 kts | 163° |
| 2026-05-05 17:30 | 22.15983 | 5.72890 | 36800 ft | 510 kts | 162° |
| 2026-05-05 17:30 | 22.09396 | 5.75742 | 36773 ft | 510 kts | 162° |
| 2026-05-05 17:31 | 22.02826 | 5.78584 | 36780 ft | 508 kts | 162° |
| 2026-05-05 17:31 | 21.96273 | 5.81414 | 36785 ft | 507 kts | 163° |
| 2026-05-05 17:32 | 21.89714 | 5.84242 | 36775 ft | 508 kts | 163° |
| 2026-05-05 17:32 | 21.83144 | 5.87073 | 36778 ft | 509 kts | 163° |
| 2026-05-05 17:33 | 21.76565 | 5.89905 | 36771 ft | 510 kts | 163° |
| 2026-05-05 17:33 | 21.69976 | 5.92739 | 36773 ft | 510 kts | 163° |
| 2026-05-05 17:34 | 21.63379 | 5.95573 | 36758 ft | 511 kts | 163° |
| 2026-05-05 17:34 | 21.56767 | 5.98411 | 36767 ft | 512 kts | 163° |
| 2026-05-05 17:35 | 21.50188 | 6.01232 | 36771 ft | 513 kts | 163° |
| 2026-05-05 17:35 | 21.43551 | 6.04075 | 36768 ft | 514 kts | 163° |
| 2026-05-05 17:36 | 21.36901 | 6.06921 | 36765 ft | 514 kts | 163° |
| 2026-05-05 17:36 | 21.30256 | 6.09763 | 36768 ft | 514 kts | 163° |
| 2026-05-05 17:37 | 21.23614 | 6.12600 | 36761 ft | 514 kts | 163° |
| 2026-05-05 17:37 | 21.16978 | 6.15432 | 36759 ft | 513 kts | 163° |
| 2026-05-05 17:38 | 21.10350 | 6.18258 | 36762 ft | 512 kts | 163° |
| 2026-05-05 17:38 | 21.03729 | 6.21078 | 36763 ft | 512 kts | 163° |
| 2026-05-05 17:39 | 20.97112 | 6.23892 | 36753 ft | 512 kts | 163° |
| 2026-05-05 17:39 | 20.90493 | 6.26705 | 36757 ft | 512 kts | 163° |
| 2026-05-05 17:40 | 20.83865 | 6.29520 | 36756 ft | 513 kts | 163° |
| 2026-05-05 17:40 | 20.77228 | 6.32336 | 36756 ft | 513 kts | 163° |
| 2026-05-05 17:41 | 20.70589 | 6.35150 | 36755 ft | 514 kts | 163° |
| 2026-05-05 17:41 | 20.63943 | 6.37965 | 36753 ft | 514 kts | 163° |
| 2026-05-05 17:42 | 20.57289 | 6.40779 | 36753 ft | 514 kts | 163° |
| 2026-05-05 17:42 | 20.50632 | 6.43593 | 36755 ft | 515 kts | 163° |
| 2026-05-05 17:43 | 20.43967 | 6.46407 | 36751 ft | 515 kts | 163° |
| 2026-05-05 17:43 | 20.37288 | 6.49226 | 36751 ft | 516 kts | 163° |
| 2026-05-05 17:44 | 20.30612 | 6.52040 | 36746 ft | 516 kts | 163° |
| 2026-05-05 17:44 | 20.23986 | 6.54831 | 36748 ft | 515 kts | 163° |
| 2026-05-05 17:45 | 20.17329 | 6.57630 | 36744 ft | 512 kts | 164° |
| 2026-05-05 17:45 | 20.13928 | 6.58615 | 36741 ft | 501 kts | 178° |
| 2026-05-05 17:45 | 20.10491 | 6.58760 | 36759 ft | 490 kts | 190° |
| 2026-05-05 17:46 | 20.04028 | 6.57092 | 36758 ft | 472 kts | 207° |
| 2026-05-05 17:46 | 19.97883 | 6.54512 | 36739 ft | 477 kts | 207° |
| 2026-05-05 17:47 | 19.91665 | 6.51957 | 36761 ft | 482 kts | 207° |
| 2026-05-05 17:47 | 19.85369 | 6.49419 | 36756 ft | 486 kts | 206° |
| 2026-05-05 17:48 | 19.79033 | 6.46884 | 36746 ft | 488 kts | 206° |
| 2026-05-05 17:48 | 19.72681 | 6.44347 | 36739 ft | 488 kts | 207° |
| 2026-05-05 17:49 | 19.66330 | 6.41810 | 36726 ft | 488 kts | 208° |
| 2026-05-05 17:49 | 19.60022 | 6.39288 | 36743 ft | 488 kts | 208° |
| 2026-05-05 17:50 | 19.53646 | 6.36741 | 36748 ft | 489 kts | 208° |
| 2026-05-05 17:50 | 19.47269 | 6.34197 | 36747 ft | 490 kts | 208° |
| 2026-05-05 17:51 | 19.40882 | 6.31651 | 36740 ft | 491 kts | 208° |
| 2026-05-05 17:51 | 19.34482 | 6.29102 | 36735 ft | 491 kts | 208° |
| 2026-05-05 17:52 | 19.28072 | 6.26552 | 36738 ft | 492 kts | 208° |
| 2026-05-05 17:52 | 19.21652 | 6.23999 | 36749 ft | 493 kts | 208° |
| 2026-05-05 17:53 | 19.15227 | 6.21447 | 36745 ft | 494 kts | 208° |
| 2026-05-05 17:53 | 19.08789 | 6.18891 | 36738 ft | 494 kts | 208° |
| 2026-05-05 17:54 | 19.02342 | 6.16335 | 36742 ft | 494 kts | 208° |
| 2026-05-05 17:54 | 18.95943 | 6.13799 | 36739 ft | 495 kts | 208° |
| 2026-05-05 17:55 | 18.89496 | 6.11247 | 36742 ft | 495 kts | 208° |
| 2026-05-05 17:55 | 18.83040 | 6.08692 | 36738 ft | 496 kts | 208° |
| 2026-05-05 17:56 | 18.76572 | 6.06136 | 36740 ft | 496 kts | 208° |
| 2026-05-05 17:56 | 18.70114 | 6.03586 | 36735 ft | 496 kts | 208° |
| 2026-05-05 17:57 | 18.63659 | 6.01038 | 36729 ft | 495 kts | 208° |
| 2026-05-05 17:57 | 18.58256 | 5.98908 | 36735 ft | 495 kts | 208° |
| 2026-05-05 17:58 | 18.51811 | 5.96368 | 36737 ft | 494 kts | 208° |
| 2026-05-05 17:58 | 18.45366 | 5.93829 | 36736 ft | 494 kts | 208° |
| 2026-05-05 17:59 | 18.38965 | 5.91311 | 36735 ft | 495 kts | 208° |
| 2026-05-05 17:59 | 18.32512 | 5.88774 | 36716 ft | 495 kts | 208° |
| 2026-05-05 18:00 | 18.26063 | 5.86240 | 36747 ft | 495 kts | 208° |
| 2026-05-05 18:00 | 18.19607 | 5.83706 | 36727 ft | 495 kts | 208° |
| 2026-05-05 18:01 | 18.13147 | 5.81172 | 36740 ft | 496 kts | 208° |
| 2026-05-05 18:01 | 18.06679 | 5.78638 | 36731 ft | 496 kts | 208° |
| 2026-05-05 18:02 | 18.00213 | 5.76106 | 36728 ft | 496 kts | 208° |
| 2026-05-05 18:02 | 17.93744 | 5.73574 | 36729 ft | 496 kts | 208° |
| 2026-05-05 18:03 | 17.87272 | 5.71044 | 36745 ft | 496 kts | 208° |
| 2026-05-05 18:03 | 17.80743 | 5.68659 | 36727 ft | 502 kts | 202° |
| 2026-05-05 18:04 | 17.73914 | 5.67022 | 36728 ft | 504 kts | 200° |
| 2026-05-05 18:04 | 17.67056 | 5.65470 | 36732 ft | 503 kts | 200° |
| 2026-05-05 18:05 | 17.60222 | 5.63893 | 36724 ft | 503 kts | 200° |
| 2026-05-05 18:05 | 17.53393 | 5.62290 | 36732 ft | 503 kts | 200° |
| 2026-05-05 18:06 | 17.46614 | 5.60690 | 36730 ft | 503 kts | 200° |
| 2026-05-05 18:06 | 17.39785 | 5.59080 | 36724 ft | 503 kts | 200° |
| 2026-05-05 18:07 | 17.32950 | 5.57473 | 36735 ft | 504 kts | 200° |
| 2026-05-05 18:07 | 17.26109 | 5.55866 | 36722 ft | 504 kts | 200° |
| 2026-05-05 18:08 | 17.19266 | 5.54260 | 36737 ft | 504 kts | 200° |
| 2026-05-05 18:08 | 17.12419 | 5.52654 | 36735 ft | 504 kts | 200° |
| 2026-05-05 18:09 | 17.05567 | 5.51048 | 36740 ft | 505 kts | 200° |
| 2026-05-05 18:09 | 16.98713 | 5.49443 | 36739 ft | 505 kts | 200° |
| 2026-05-05 18:10 | 16.91860 | 5.47840 | 36735 ft | 505 kts | 200° |
| 2026-05-05 18:10 | 16.85002 | 5.46237 | 36745 ft | 505 kts | 200° |
| 2026-05-05 18:11 | 16.78147 | 5.44634 | 36741 ft | 505 kts | 200° |
| 2026-05-05 18:11 | 16.71332 | 5.43043 | 36743 ft | 505 kts | 200° |
| 2026-05-05 18:12 | 16.64476 | 5.41443 | 36744 ft | 505 kts | 200° |
| 2026-05-05 18:12 | 16.57618 | 5.39845 | 36739 ft | 505 kts | 200° |
| 2026-05-05 18:13 | 16.50765 | 5.38248 | 36746 ft | 505 kts | 200° |
| 2026-05-05 18:13 | 16.43908 | 5.36652 | 36743 ft | 505 kts | 200° |
| 2026-05-05 18:14 | 16.37050 | 5.35056 | 36749 ft | 505 kts | 200° |
| 2026-05-05 18:14 | 16.30190 | 5.33461 | 36747 ft | 505 kts | 200° |
| 2026-05-05 18:15 | 16.23334 | 5.31869 | 36734 ft | 505 kts | 199° |
| 2026-05-05 18:15 | 16.16482 | 5.30279 | 36745 ft | 504 kts | 199° |
| 2026-05-05 18:16 | 16.09635 | 5.28691 | 36752 ft | 504 kts | 199° |
| 2026-05-05 18:16 | 16.02790 | 5.27104 | 36751 ft | 504 kts | 199° |
| 2026-05-05 18:17 | 15.95951 | 5.25519 | 36758 ft | 504 kts | 199° |
| 2026-05-05 18:17 | 15.89111 | 5.23935 | 36748 ft | 503 kts | 199° |
| 2026-05-05 18:18 | 15.82319 | 5.22365 | 36770 ft | 503 kts | 199° |
| 2026-05-05 18:18 | 15.75482 | 5.20784 | 36759 ft | 504 kts | 199° |
| 2026-05-05 18:19 | 15.68640 | 5.19203 | 36784 ft | 504 kts | 199° |
| 2026-05-05 18:19 | 15.61791 | 5.17622 | 36759 ft | 504 kts | 199° |
| 2026-05-05 18:20 | 15.54942 | 5.16042 | 36766 ft | 504 kts | 199° |
| 2026-05-05 18:20 | 15.48094 | 5.14463 | 36767 ft | 504 kts | 199° |
| 2026-05-05 18:21 | 15.41250 | 5.12887 | 36775 ft | 504 kts | 199° |
| 2026-05-05 18:21 | 15.34402 | 5.11310 | 36777 ft | 504 kts | 199° |
| 2026-05-05 18:22 | 15.27562 | 5.09736 | 36783 ft | 504 kts | 199° |
| 2026-05-05 18:22 | 15.20720 | 5.08162 | 36769 ft | 503 kts | 198° |
| 2026-05-05 18:23 | 15.13883 | 5.06589 | 36778 ft | 503 kts | 198° |
| 2026-05-05 18:23 | 15.07050 | 5.05018 | 36791 ft | 503 kts | 198° |
| 2026-05-05 18:24 | 15.00224 | 5.03449 | 36797 ft | 503 kts | 198° |
| 2026-05-05 18:24 | 14.93396 | 5.01880 | 36794 ft | 503 kts | 198° |
| 2026-05-05 18:25 | 14.86565 | 5.00311 | 36779 ft | 502 kts | 198° |
| 2026-05-05 18:25 | 14.79744 | 4.98746 | 36784 ft | 502 kts | 198° |
| 2026-05-05 18:26 | 14.72915 | 4.97181 | 36767 ft | 503 kts | 198° |
| 2026-05-05 18:26 | 14.66085 | 4.95615 | 36765 ft | 503 kts | 198° |
| 2026-05-05 18:27 | 14.59254 | 4.94051 | 36768 ft | 503 kts | 198° |
| 2026-05-05 18:27 | 14.52417 | 4.92487 | 36763 ft | 503 kts | 198° |
| 2026-05-05 18:28 | 14.42174 | 4.90145 | 36757 ft | 502 kts | 198° |
| 2026-05-05 18:28 | 14.35349 | 4.88586 | 36759 ft | 502 kts | 198° |
| 2026-05-05 18:29 | 14.28530 | 4.87028 | 36756 ft | 502 kts | 198° |
| 2026-05-05 18:29 | 14.21758 | 4.85483 | 36755 ft | 502 kts | 198° |
| 2026-05-05 18:30 | 14.14932 | 4.83926 | 36749 ft | 502 kts | 198° |
| 2026-05-05 18:30 | 14.08116 | 4.82372 | 36760 ft | 502 kts | 198° |
| 2026-05-05 18:31 | 14.01297 | 4.80819 | 36757 ft | 502 kts | 198° |
| 2026-05-05 18:31 | 13.94463 | 4.79263 | 36755 ft | 502 kts | 198° |
| 2026-05-05 18:32 | 13.87636 | 4.77710 | 36759 ft | 503 kts | 198° |
| 2026-05-05 18:32 | 13.80803 | 4.76156 | 36742 ft | 503 kts | 198° |
| 2026-05-05 18:33 | 13.73970 | 4.74603 | 36756 ft | 503 kts | 197° |
| 2026-05-05 18:33 | 13.67127 | 4.73059 | 36756 ft | 503 kts | 197° |
| 2026-05-05 18:34 | 13.60329 | 4.71527 | 36759 ft | 503 kts | 197° |
| 2026-05-05 18:34 | 13.53494 | 4.69983 | 36756 ft | 503 kts | 197° |
| 2026-05-05 18:35 | 13.46655 | 4.68436 | 36756 ft | 503 kts | 197° |
| 2026-05-05 18:35 | 13.39819 | 4.66891 | 36754 ft | 503 kts | 197° |
| 2026-05-05 18:36 | 13.32962 | 4.65341 | 37080 ft | 505 kts | 197° |
| 2026-05-05 18:36 | 13.29539 | 4.64569 | 37489 ft | 502 kts | 197° |
| 2026-05-05 18:36 | 13.26128 | 4.63801 | 37901 ft | 499 kts | 197° |
| 2026-05-05 18:37 | 13.22747 | 4.63039 | 38311 ft | 497 kts | 197° |
| 2026-05-05 18:37 | 13.19373 | 4.62278 | 38618 ft | 495 kts | 197° |
| 2026-05-05 18:37 | 13.12602 | 4.60748 | 38739 ft | 499 kts | 197° |
| 2026-05-05 18:38 | 13.05837 | 4.59225 | 38740 ft | 496 kts | 197° |
| 2026-05-05 18:38 | 12.99222 | 4.57389 | 38762 ft | 490 kts | 201° |
| 2026-05-05 18:39 | 12.92709 | 4.55359 | 38764 ft | 489 kts | 201° |
| 2026-05-05 18:39 | 12.86253 | 4.53347 | 38760 ft | 488 kts | 201° |
| 2026-05-05 18:40 | 12.79761 | 4.51348 | 38764 ft | 487 kts | 201° |
| 2026-05-05 18:40 | 12.73261 | 4.49359 | 38760 ft | 487 kts | 201° |
| 2026-05-05 18:41 | 12.66762 | 4.47372 | 38768 ft | 488 kts | 200° |
| 2026-05-05 18:41 | 12.60255 | 4.45383 | 38767 ft | 488 kts | 200° |
| 2026-05-05 18:42 | 12.53741 | 4.43392 | 38770 ft | 489 kts | 200° |
| 2026-05-05 18:42 | 12.47214 | 4.41398 | 38775 ft | 489 kts | 200° |
| 2026-05-05 18:43 | 12.40687 | 4.39405 | 38777 ft | 490 kts | 200° |
| 2026-05-05 18:43 | 12.34155 | 4.37411 | 38765 ft | 490 kts | 200° |
| 2026-05-05 18:44 | 12.27612 | 4.35415 | 38781 ft | 491 kts | 200° |
| 2026-05-05 18:44 | 12.21105 | 4.33432 | 38782 ft | 491 kts | 200° |
| 2026-05-05 18:45 | 12.14552 | 4.31435 | 38783 ft | 492 kts | 200° |
| 2026-05-05 18:45 | 12.07993 | 4.29437 | 38785 ft | 492 kts | 200° |
| 2026-05-05 18:46 | 12.02494 | 4.27763 | 38785 ft | 492 kts | 200° |
| 2026-05-05 18:46 | 11.95939 | 4.25768 | 38784 ft | 491 kts | 199° |
| 2026-05-05 18:47 | 11.89433 | 4.23790 | 38788 ft | 491 kts | 199° |
| 2026-05-05 18:47 | 11.82890 | 4.21805 | 38789 ft | 490 kts | 199° |
| 2026-05-05 18:48 | 11.76358 | 4.19827 | 38792 ft | 490 kts | 199° |
| 2026-05-05 18:48 | 11.69825 | 4.17848 | 38793 ft | 489 kts | 199° |
| 2026-05-05 18:49 | 11.63306 | 4.15874 | 38786 ft | 489 kts | 198° |
| 2026-05-05 18:49 | 11.56787 | 4.13900 | 38792 ft | 488 kts | 198° |
| 2026-05-05 18:50 | 11.50267 | 4.11928 | 38792 ft | 488 kts | 198° |
| 2026-05-05 18:50 | 11.43799 | 4.09972 | 38796 ft | 488 kts | 198° |
| 2026-05-05 18:51 | 11.37287 | 4.08003 | 40597 ft | 488 kts | 198° |
| 2026-05-05 18:51 | 11.34019 | 4.07015 | 38603 ft | 492 kts | 197° |
| 2026-05-05 18:51 | 11.30753 | 4.06029 | 38664 ft | 487 kts | 198° |
| 2026-05-05 18:52 | 11.24256 | 4.04068 | 38774 ft | 487 kts | 197° |
| 2026-05-05 18:52 | 11.17749 | 4.02103 | 38800 ft | 489 kts | 197° |
| 2026-05-05 18:53 | 11.11202 | 4.00127 | 38814 ft | 492 kts | 197° |
| 2026-05-05 18:53 | 11.04633 | 3.98146 | 38809 ft | 493 kts | 197° |
| 2026-05-05 18:54 | 10.98051 | 3.96163 | 38820 ft | 493 kts | 197° |
| 2026-05-05 18:54 | 10.91486 | 3.94185 | 38819 ft | 492 kts | 197° |
| 2026-05-05 18:55 | 10.84931 | 3.92211 | 38817 ft | 490 kts | 197° |
| 2026-05-05 18:55 | 10.78396 | 3.90244 | 38814 ft | 489 kts | 197° |
| 2026-05-05 18:56 | 10.71922 | 3.88296 | 38814 ft | 488 kts | 197° |
| 2026-05-05 18:56 | 10.65418 | 3.86340 | 38827 ft | 487 kts | 197° |
| 2026-05-05 18:57 | 10.58925 | 3.84389 | 38834 ft | 486 kts | 197° |
| 2026-05-05 18:57 | 10.52436 | 3.82438 | 38810 ft | 487 kts | 197° |
| 2026-05-05 18:58 | 10.45927 | 3.80484 | 38847 ft | 488 kts | 197° |
| 2026-05-05 18:58 | 10.39398 | 3.78523 | 38842 ft | 491 kts | 197° |
| 2026-05-05 18:59 | 10.32836 | 3.76555 | 38847 ft | 493 kts | 197° |
| 2026-05-05 18:59 | 10.26238 | 3.74576 | 38846 ft | 495 kts | 197° |
| 2026-05-05 19:00 | 10.19620 | 3.72591 | 38842 ft | 496 kts | 197° |
| 2026-05-05 19:00 | 10.13033 | 3.70617 | 38833 ft | 497 kts | 196° |
| 2026-05-05 19:01 | 10.06399 | 3.68630 | 38847 ft | 497 kts | 196° |
| 2026-05-05 19:01 | 9.99767 | 3.66645 | 38844 ft | 497 kts | 196° |
| 2026-05-05 19:02 | 9.93138 | 3.64660 | 38837 ft | 496 kts | 196° |
| 2026-05-05 19:02 | 9.86521 | 3.62681 | 38845 ft | 495 kts | 196° |
| 2026-05-05 19:03 | 9.79918 | 3.60706 | 38851 ft | 495 kts | 196° |
| 2026-05-05 19:03 | 9.73313 | 3.58731 | 38852 ft | 495 kts | 196° |
| 2026-05-05 19:04 | 9.66709 | 3.56758 | 38853 ft | 495 kts | 196° |
| 2026-05-05 19:04 | 9.60092 | 3.54781 | 38859 ft | 495 kts | 196° |
| 2026-05-05 19:05 | 9.53474 | 3.52805 | 38859 ft | 496 kts | 196° |
| 2026-05-05 19:05 | 9.46778 | 3.51129 | 38862 ft | 496 kts | 188° |
| 2026-05-05 19:06 | 9.39950 | 3.50543 | 38884 ft | 496 kts | 183° |
| 2026-05-05 19:06 | 9.33052 | 3.50137 | 38878 ft | 497 kts | 183° |
| 2026-05-05 19:07 | 9.26146 | 3.49698 | 38870 ft | 497 kts | 184° |
| 2026-05-05 19:07 | 9.19240 | 3.49230 | 38876 ft | 497 kts | 184° |
| 2026-05-05 19:08 | 9.12336 | 3.48753 | 38874 ft | 497 kts | 184° |
| 2026-05-05 19:08 | 9.05429 | 3.48279 | 38860 ft | 498 kts | 184° |
| 2026-05-05 19:09 | 8.98509 | 3.47806 | 38881 ft | 499 kts | 184° |
| 2026-05-05 19:09 | 8.91581 | 3.47332 | 38884 ft | 500 kts | 184° |
| 2026-05-05 19:10 | 8.84629 | 3.46857 | 38878 ft | 501 kts | 184° |
| 2026-05-05 19:10 | 8.77665 | 3.46381 | 38876 ft | 502 kts | 184° |
| 2026-05-05 19:11 | 8.70683 | 3.45905 | 38871 ft | 502 kts | 184° |
| 2026-05-05 19:11 | 8.67166 | 3.45665 | 38303 ft | 512 kts | 184° |
| 2026-05-05 19:11 | 8.63596 | 3.45421 | 37539 ft | 514 kts | 183° |
| 2026-05-05 19:12 | 8.60032 | 3.45178 | 36767 ft | 513 kts | 183° |
| 2026-05-05 19:12 | 8.56473 | 3.44935 | 35997 ft | 512 kts | 183° |
| 2026-05-05 19:12 | 8.52912 | 3.44693 | 35152 ft | 513 kts | 183° |
| 2026-05-05 19:12 | 8.49335 | 3.44460 | 34212 ft | 516 kts | 183° |
| 2026-05-05 19:13 | 8.45741 | 3.44231 | 33151 ft | 519 kts | 183° |
| 2026-05-05 19:13 | 8.42128 | 3.44002 | 32082 ft | 521 kts | 183° |
| 2026-05-05 19:13 | 8.38550 | 3.43774 | 31036 ft | 523 kts | 183° |
| 2026-05-05 19:13 | 8.34865 | 3.43537 | 30117 ft | 523 kts | 183° |
| 2026-05-05 19:14 | 8.31303 | 3.43307 | 29311 ft | 518 kts | 182° |
| 2026-05-05 19:14 | 8.27729 | 3.43072 | 28533 ft | 512 kts | 182° |
| 2026-05-05 19:14 | 8.24199 | 3.42836 | 27811 ft | 506 kts | 182° |
| 2026-05-05 19:14 | 8.20701 | 3.42600 | 27115 ft | 501 kts | 182° |
| 2026-05-05 19:15 | 8.17242 | 3.42366 | 26429 ft | 496 kts | 182° |
| 2026-05-05 19:15 | 8.13820 | 3.42136 | 25750 ft | 491 kts | 182° |
| 2026-05-05 19:15 | 8.10419 | 3.41907 | 25058 ft | 488 kts | 182° |
| 2026-05-05 19:15 | 8.07046 | 3.41681 | 24380 ft | 484 kts | 182° |
| 2026-05-05 19:16 | 8.03691 | 3.41457 | 23706 ft | 482 kts | 182° |
| 2026-05-05 19:16 | 8.00356 | 3.41234 | 22939 ft | 479 kts | 182° |
| 2026-05-05 19:16 | 7.97043 | 3.41013 | 22214 ft | 475 kts | 182° |
| 2026-05-05 19:16 | 7.93762 | 3.40793 | 21532 ft | 470 kts | 182° |
| 2026-05-05 19:17 | 7.90519 | 3.40576 | 20874 ft | 465 kts | 182° |
| 2026-05-05 19:17 | 7.87308 | 3.40361 | 20231 ft | 460 kts | 181° |
| 2026-05-05 19:17 | 7.84131 | 3.40149 | 19619 ft | 455 kts | 181° |
| 2026-05-05 19:17 | 7.80990 | 3.39939 | 19010 ft | 451 kts | 181° |
| 2026-05-05 19:18 | 7.77876 | 3.39726 | 18462 ft | 445 kts | 182° |
| 2026-05-05 19:18 | 7.74817 | 3.39438 | 18028 ft | 437 kts | 184° |
| 2026-05-05 19:18 | 7.71891 | 3.39107 | 17111 ft | 412 kts | 184° |
| 2026-05-05 19:18 | 7.69103 | 3.38774 | 16402 ft | 399 kts | 184° |
| 2026-05-05 19:19 | 7.66345 | 3.38449 | 15821 ft | 399 kts | 184° |
| 2026-05-05 19:19 | 7.63588 | 3.38133 | 15235 ft | 398 kts | 183° |
| 2026-05-05 19:19 | 7.60839 | 3.37824 | 14659 ft | 397 kts | 183° |
| 2026-05-05 19:19 | 7.58095 | 3.37520 | 14086 ft | 397 kts | 183° |
| 2026-05-05 19:20 | 7.55352 | 3.37219 | 13480 ft | 396 kts | 183° |
| 2026-05-05 19:20 | 7.52608 | 3.36918 | 12859 ft | 395 kts | 183° |
| 2026-05-05 19:20 | 7.49875 | 3.36619 | 12276 ft | 393 kts | 182° |
| 2026-05-05 19:20 | 7.47160 | 3.36321 | 11705 ft | 391 kts | 182° |
| 2026-05-05 19:21 | 7.44460 | 3.36026 | 11136 ft | 390 kts | 182° |
| 2026-05-05 19:21 | 7.41782 | 3.35731 | 10804 ft | 381 kts | 182° |
| 2026-05-05 19:21 | 7.39188 | 3.35445 | 10633 ft | 369 kts | 182° |
| 2026-05-05 19:21 | 7.36678 | 3.35168 | 10466 ft | 357 kts | 182° |
| 2026-05-05 19:22 | 7.34246 | 3.34901 | 10312 ft | 346 kts | 182° |
| 2026-05-05 19:22 | 7.31890 | 3.34642 | 10167 ft | 335 kts | 182° |
| 2026-05-05 19:22 | 7.29602 | 3.34392 | 10028 ft | 325 kts | 182° |
| 2026-05-05 19:22 | 7.27382 | 3.34151 | 9896 ft | 316 kts | 181° |
| 2026-05-05 19:23 | 7.25218 | 3.33914 | 9684 ft | 310 kts | 181° |
| 2026-05-05 19:23 | 7.23093 | 3.33683 | 9305 ft | 303 kts | 182° |
| 2026-05-05 19:23 | 7.21056 | 3.33460 | 8931 ft | 289 kts | 182° |
| 2026-05-05 19:23 | 7.19065 | 3.33244 | 8622 ft | 287 kts | 182° |
| 2026-05-05 19:24 | 7.17084 | 3.33030 | 8306 ft | 286 kts | 182° |
| 2026-05-05 19:24 | 7.15137 | 3.32818 | 7994 ft | 285 kts | 183° |
| 2026-05-05 19:24 | 7.13166 | 3.32603 | 7673 ft | 284 kts | 183° |
| 2026-05-05 19:24 | 7.11200 | 3.32388 | 7359 ft | 284 kts | 184° |
| 2026-05-05 19:25 | 7.09238 | 3.32174 | 7052 ft | 283 kts | 184° |
| 2026-05-05 19:25 | 7.07275 | 3.32007 | 6735 ft | 282 kts | 181° |
| 2026-05-05 19:25 | 7.05314 | 3.31918 | 6419 ft | 282 kts | 180° |
| 2026-05-05 19:25 | 7.03356 | 3.31843 | 6091 ft | 282 kts | 180° |
| 2026-05-05 19:26 | 7.01399 | 3.31769 | 5770 ft | 281 kts | 180° |
| 2026-05-05 19:26 | 6.99453 | 3.31690 | 5485 ft | 278 kts | 181° |
| 2026-05-05 19:26 | 6.97521 | 3.31609 | 5179 ft | 276 kts | 181° |
| 2026-05-05 19:26 | 6.95614 | 3.31527 | 4855 ft | 275 kts | 182° |
| 2026-05-05 19:27 | 6.93725 | 3.31445 | 4688 ft | 268 kts | 182° |
| 2026-05-05 19:27 | 6.91873 | 3.31363 | 4436 ft | 265 kts | 182° |
| 2026-05-05 19:27 | 6.90028 | 3.31280 | 4159 ft | 258 kts | 182° |
| 2026-05-05 19:27 | 6.88321 | 3.31191 | 3986 ft | 233 kts | 185° |
| 2026-05-05 19:28 | 6.86769 | 3.31069 | 3727 ft | 217 kts | 183° |
| 2026-05-05 19:28 | 6.85278 | 3.31021 | 3547 ft | 209 kts | 181° |
| 2026-05-05 19:28 | 6.83837 | 3.31017 | 3490 ft | 208 kts | 180° |
| 2026-05-05 19:28 | 6.82389 | 3.31028 | 3461 ft | 207 kts | 180° |
| 2026-05-05 19:29 | 6.80964 | 3.31043 | 3453 ft | 203 kts | 180° |
| 2026-05-05 19:29 | 6.79556 | 3.31060 | 3461 ft | 202 kts | 180° |
| 2026-05-05 19:29 | 6.78180 | 3.31076 | 3432 ft | 194 kts | 180° |
| 2026-05-05 19:29 | 6.76851 | 3.31093 | 3452 ft | 189 kts | 180° |
| 2026-05-05 19:30 | 6.75551 | 3.31109 | 3208 ft | 185 kts | 180° |
| 2026-05-05 19:30 | 6.74284 | 3.31125 | 2950 ft | 179 kts | 181° |
| 2026-05-05 19:30 | 6.73065 | 3.31140 | 2742 ft | 172 kts | 181° |
| 2026-05-05 19:30 | 6.71893 | 3.31153 | 2515 ft | 164 kts | 181° |
| 2026-05-05 19:31 | 6.70738 | 3.31167 | 2314 ft | 168 kts | 181° |
| 2026-05-05 19:31 | 6.69572 | 3.31187 | 2107 ft | 168 kts | 181° |
| 2026-05-05 19:31 | 6.68439 | 3.31229 | 1890 ft | 156 kts | 180° |
| 2026-05-05 19:31 | 6.67395 | 3.31274 | 1714 ft | 146 kts | 180° |
| 2026-05-05 19:32 | 6.66730 | 3.31292 | 1577 ft | 142 kts | 181° |
| 2026-05-05 19:32 | 6.65749 | 3.31300 | 1411 ft | 142 kts | 183° |
| 2026-05-05 19:32 | 6.64408 | 3.31273 | 1148 ft | 142 kts | 183° |
| 2026-05-05 19:32 | 6.63760 | 3.31268 | 1012 ft | 140 kts | 182° |
| 2026-05-05 19:33 | 6.62774 | 3.31282 | 799 ft | 144 kts | 182° |
| 2026-05-05 19:33 | 6.61757 | 3.31297 | 622 ft | 148 kts | 181° |
| 2026-05-05 19:33 | 6.60706 | 3.31309 | 473 ft | 155 kts | 181° |
| 2026-05-05 19:33 | 6.59637 | 3.31308 | 267 ft | 151 kts | 180° |
| 2026-05-05 19:34 | 6.58607 | 3.31323 | 120 ft | 147 kts | 180° |
| 2026-05-05 19:34 | 6.57654 | 3.31327 | 100 ft | 121 kts | 179° |
| 2026-05-05 19:34 | 6.56937 | 3.31336 | 102 ft | 85 kts | 179° |
| 2026-05-05 19:35 | 6.56161 | 3.31345 | 96 ft | 48 kts | 179° |
| 2026-05-05 19:35 | 6.55802 | 3.31349 | 93 ft | 51 kts | 179° |
| 2026-05-05 19:35 | 6.55460 | 3.31353 | 95 ft | 48 kts | 179° |
| 2026-05-05 19:35 | 6.55256 | 3.31398 | 97 ft | 25 kts | 142° |
| 2026-05-05 19:36 | 6.55252 | 3.31552 | 96 ft | 25 kts | 35° |
| 2026-05-05 19:36 | 6.55417 | 3.31559 | 97 ft | 23 kts | 359° |
| 2026-05-05 19:36 | 6.55580 | 3.31556 | 94 ft | 23 kts | 359° |
| 2026-05-05 19:36 | 6.55743 | 3.31555 | 97 ft | 23 kts | 359° |
| 2026-05-05 19:37 | 6.55906 | 3.31552 | 98 ft | 23 kts | 359° |
| 2026-05-05 19:37 | 6.56068 | 3.31551 | 99 ft | 23 kts | 359° |
| 2026-05-05 19:37 | 6.56231 | 3.31549 | 97 ft | 23 kts | 359° |
| 2026-05-05 19:37 | 6.56394 | 3.31547 | 98 ft | 23 kts | 359° |
| 2026-05-05 19:38 | 6.56557 | 3.31545 | 98 ft | 23 kts | 359° |
| 2026-05-05 19:38 | 6.56719 | 3.31543 | 99 ft | 23 kts | 359° |
| 2026-05-05 19:38 | 6.56882 | 3.31541 | 99 ft | 23 kts | 359° |
| 2026-05-05 19:38 | 6.57044 | 3.31539 | 100 ft | 23 kts | 359° |
| 2026-05-05 19:39 | 6.57207 | 3.31537 | 100 ft | 23 kts | 359° |
| 2026-05-05 19:39 | 6.57370 | 3.31535 | 100 ft | 23 kts | 359° |
| 2026-05-05 19:39 | 6.57532 | 3.31533 | 103 ft | 23 kts | 359° |
| 2026-05-05 19:39 | 6.57695 | 3.31529 | 101 ft | 23 kts | 359° |
| 2026-05-05 19:40 | 6.57857 | 3.31529 | 101 ft | 23 kts | 359° |
| 2026-05-05 19:40 | 6.57978 | 3.31527 | 102 ft | 12 kts | 359° |
| 2026-05-05 19:40 | 6.58050 | 3.31561 | 104 ft | 12 kts | 62° |
| 2026-05-05 19:40 | 6.58083 | 3.31643 | 105 ft | 13 kts | 68° |
| 2026-05-05 19:41 | 6.58116 | 3.31724 | 105 ft | 13 kts | 75° |
| 2026-05-05 19:41 | 6.58066 | 3.31785 | 103 ft | 11 kts | 153° |
| 2026-05-05 19:41 | 6.58059 | 3.31839 | 104 ft | 7 kts | 70° |
| 2026-05-05 19:41 | 6.58069 | 3.31865 | 104 ft | 1 kts | 67° |
| 2026-05-05 19:42 | 6.58070 | 3.31866 | 104 ft | 0 kts | 67° |
| 2026-05-05 19:45 | 6.59447 | 3.31311 | 242 ft | 149 kts | 180° |
| 2026-05-05 19:45 | 6.58783 | 3.31321 | 142 ft | 147 kts | 180° |
| 2026-05-05 19:45 | 6.58019 | 3.31323 | 102 ft | 135 kts | 179° |
| 2026-05-05 19:45 | 6.58780 | 3.31321 | 141 ft | 147 kts | 180° |